createdAt,value
2022-08-31T00:00:08.090Z,15.30
2022-08-31T00:00:58.273Z,15.30
2022-08-31T00:01:48.163Z,15.31
2022-08-31T00:02:38.655Z,15.28
2022-08-31T00:03:28.613Z,15.24
2022-08-31T00:04:03.615Z,15.24
2022-08-31T00:04:35.415Z,15.20
2022-08-31T00:05:07.996Z,15.17
2022-08-31T00:05:39.666Z,15.18
2022-08-31T00:06:11.314Z,15.13
2022-08-31T00:06:42.894Z,15.19
2022-08-31T00:07:14.784Z,15.21
2022-08-31T00:07:46.502Z,15.21
2022-08-31T00:08:19.538Z,15.17
2022-08-31T00:08:51.171Z,15.18
2022-08-31T00:09:22.724Z,15.21
2022-08-31T00:09:55.098Z,15.19
2022-08-31T00:10:31.963Z,15.15
2022-08-31T00:11:10.662Z,15.20
2022-08-31T00:11:42.184Z,15.24
2022-08-31T00:12:13.715Z,15.27
2022-08-31T00:12:46.968Z,15.26
2022-08-31T00:13:18.599Z,15.20
2022-08-31T00:13:50.556Z,15.20
2022-08-31T00:14:23.061Z,15.15
2022-08-31T00:14:54.594Z,15.15
2022-08-31T00:15:26.244Z,15.12
2022-08-31T00:15:57.805Z,15.11
2022-08-31T00:16:31.406Z,15.10
2022-08-31T00:17:03.689Z,15.13
2022-08-31T00:17:35.228Z,15.12
2022-08-31T00:18:06.873Z,15.14
2022-08-31T00:18:38.805Z,15.14
2022-08-31T00:19:10.761Z,15.18
2022-08-31T00:19:42.296Z,15.19
2022-08-31T00:20:32.611Z,15.16
2022-08-31T00:21:06.245Z,15.15
2022-08-31T00:21:39.253Z,15.12
2022-08-31T00:22:10.785Z,15.11
2022-08-31T00:22:42.361Z,15.11
2022-08-31T00:23:15.991Z,15.12
2022-08-31T00:23:48.127Z,15.10
2022-08-31T00:24:19.749Z,15.14
2022-08-31T00:24:51.411Z,15.11
2022-08-31T00:25:24.048Z,15.09
2022-08-31T00:25:55.977Z,15.08
2022-08-31T00:26:27.475Z,15.09
2022-08-31T00:26:59.016Z,15.08
2022-08-31T00:27:30.815Z,15.10
2022-08-31T00:28:03.473Z,15.09
2022-08-31T00:28:36.057Z,15.14
2022-08-31T00:29:08.297Z,15.10
2022-08-31T00:29:41.349Z,15.09
2022-08-31T00:30:12.991Z,15.12
2022-08-31T00:30:45.668Z,15.13
2022-08-31T00:31:17.680Z,15.13
2022-08-31T00:31:50.810Z,15.13
2022-08-31T00:32:25.395Z,15.10
2022-08-31T00:33:00.707Z,15.13
2022-08-31T00:33:36.591Z,15.12
2022-08-31T00:34:08.336Z,15.15
2022-08-31T00:34:39.804Z,15.13
2022-08-31T00:35:15.246Z,15.11
2022-08-31T00:35:46.829Z,15.09
2022-08-31T00:36:20.819Z,15.08
2022-08-31T00:36:53.763Z,15.12
2022-08-31T00:37:25.338Z,15.12
2022-08-31T00:37:57.370Z,15.11
2022-08-31T00:38:29.063Z,15.05
2022-08-31T00:39:00.666Z,14.99
2022-08-31T00:39:32.321Z,15.02
2022-08-31T00:40:05.227Z,15.01
2022-08-31T00:40:44.463Z,14.96
2022-08-31T00:41:20.009Z,14.91
2022-08-31T00:41:52.016Z,14.89
2022-08-31T00:42:23.580Z,14.88
2022-08-31T00:42:55.235Z,14.88
2022-08-31T00:43:47.899Z,14.88
2022-08-31T00:44:19.479Z,14.93
2022-08-31T00:44:52.045Z,14.95
2022-08-31T00:45:24.291Z,14.95
2022-08-31T00:45:56.026Z,14.91
2022-08-31T00:46:31.437Z,14.91
2022-08-31T00:47:03.058Z,14.92
2022-08-31T00:47:34.852Z,14.93
2022-08-31T00:48:06.407Z,14.94
2022-08-31T00:48:42.629Z,14.92
2022-08-31T00:49:20.831Z,14.98
2022-08-31T00:49:52.857Z,14.98
2022-08-31T00:50:24.765Z,14.98
2022-08-31T00:50:57.429Z,14.99
2022-08-31T00:51:30.422Z,15.00
2022-08-31T00:52:14.696Z,14.99
2022-08-31T00:52:49.147Z,14.94
2022-08-31T00:53:20.738Z,14.93
2022-08-31T00:53:52.350Z,14.95
2022-08-31T00:54:37.456Z,14.92
2022-08-31T00:55:18.730Z,14.94
2022-08-31T00:55:50.303Z,14.96
2022-08-31T00:56:23.227Z,14.94
2022-08-31T00:56:54.822Z,14.95
2022-08-31T00:57:34.451Z,14.94
2022-08-31T00:58:10.139Z,14.97
2022-08-31T00:58:42.106Z,14.96
2022-08-31T00:59:15.463Z,14.93
2022-08-31T00:59:47.487Z,14.89
2022-08-31T01:00:22.098Z,14.88
2022-08-31T01:00:53.729Z,14.88
2022-08-31T01:01:25.541Z,14.87
2022-08-31T01:01:57.212Z,14.86
2022-08-31T01:02:28.977Z,14.87
2022-08-31T01:03:03.972Z,14.89
2022-08-31T01:03:35.588Z,14.87
2022-08-31T01:04:07.624Z,14.82
2022-08-31T01:04:39.630Z,14.81
2022-08-31T01:05:12.220Z,14.81
2022-08-31T01:05:44.360Z,14.84
2022-08-31T01:06:17.640Z,14.83
2022-08-31T01:06:49.698Z,14.78
2022-08-31T01:07:21.255Z,14.76
2022-08-31T01:07:53.202Z,14.71
2022-08-31T01:08:27.161Z,14.70
2022-08-31T01:09:05.368Z,14.71
2022-08-31T01:09:40.159Z,14.70
2022-08-31T01:10:19.147Z,14.66
2022-08-31T01:10:50.821Z,14.64
2022-08-31T01:11:25.727Z,14.60
2022-08-31T01:11:57.247Z,14.59
2022-08-31T01:12:29.219Z,14.60
2022-08-31T01:13:01.265Z,14.57
2022-08-31T01:13:33.386Z,14.61
2022-08-31T01:14:05.072Z,14.63
2022-08-31T01:14:37.610Z,14.60
2022-08-31T01:15:10.901Z,14.54
2022-08-31T01:15:51.295Z,14.51
2022-08-31T01:16:44.296Z,14.49
2022-08-31T01:17:17.375Z,14.47
2022-08-31T01:17:49.723Z,14.41
2022-08-31T01:18:23.800Z,14.45
2022-08-31T01:18:57.642Z,14.52
2022-08-31T01:19:40.392Z,14.52
2022-08-31T01:20:20.774Z,14.47
2022-08-31T01:20:52.243Z,14.43
2022-08-31T01:21:41.750Z,14.44
2022-08-31T01:22:22.495Z,14.43
2022-08-31T01:23:06.801Z,14.51
2022-08-31T01:23:45.473Z,14.48
2022-08-31T01:24:17.541Z,14.49
2022-08-31T01:24:50.963Z,14.49
2022-08-31T01:25:22.615Z,14.48
2022-08-31T01:25:56.667Z,14.48
2022-08-31T01:26:29.426Z,14.51
2022-08-31T01:27:04.628Z,14.52
2022-08-31T01:27:37.433Z,14.57
2022-08-31T01:28:10.914Z,14.52
2022-08-31T01:28:42.978Z,14.48
2022-08-31T01:29:14.659Z,14.46
2022-08-31T01:29:48.984Z,14.47
2022-08-31T01:30:23.083Z,14.48
2022-08-31T01:31:03.049Z,14.47
2022-08-31T01:31:40.624Z,14.46
2022-08-31T01:32:12.169Z,14.43
2022-08-31T01:32:43.688Z,14.40
2022-08-31T01:33:15.216Z,14.35
2022-08-31T01:33:46.856Z,14.31
2022-08-31T01:34:18.371Z,14.33
2022-08-31T01:34:50.031Z,14.32
2022-08-31T01:35:21.815Z,14.35
2022-08-31T01:35:53.515Z,14.34
2022-08-31T01:36:25.831Z,14.32
2022-08-31T01:36:57.635Z,14.34
2022-08-31T01:37:30.369Z,14.33
2022-08-31T01:38:03.222Z,14.28
2022-08-31T01:38:37.383Z,14.29
2022-08-31T01:39:10.482Z,14.29
2022-08-31T01:39:42.070Z,14.29
2022-08-31T01:40:14.596Z,14.30
2022-08-31T01:40:56.082Z,14.28
2022-08-31T01:41:27.972Z,14.33
2022-08-31T01:41:59.490Z,14.35
2022-08-31T01:42:33.363Z,14.37
2022-08-31T01:43:05.974Z,14.35
2022-08-31T01:43:37.586Z,14.32
2022-08-31T01:44:10.375Z,14.35
2022-08-31T01:44:41.862Z,14.37
2022-08-31T01:45:13.422Z,14.33
2022-08-31T01:45:44.981Z,14.33
2022-08-31T01:46:16.669Z,14.29
2022-08-31T01:46:48.531Z,14.32
2022-08-31T01:47:20.153Z,14.31
2022-08-31T01:47:54.064Z,14.28
2022-08-31T01:48:25.819Z,14.26
2022-08-31T01:48:57.332Z,14.27
2022-08-31T01:49:29.381Z,14.29
2022-08-31T01:50:01.153Z,14.28
2022-08-31T01:50:32.696Z,14.25
2022-08-31T01:51:05.355Z,14.23
2022-08-31T01:51:36.859Z,14.26
2022-08-31T01:52:08.459Z,14.25
2022-08-31T01:52:39.998Z,14.22
2022-08-31T01:53:11.854Z,14.21
2022-08-31T01:53:45.554Z,14.23
2022-08-31T01:54:20.403Z,14.28
2022-08-31T01:54:53.150Z,14.25
2022-08-31T01:55:24.734Z,14.22
2022-08-31T01:55:56.377Z,14.21
2022-08-31T01:56:33.846Z,14.24
2022-08-31T01:57:07.346Z,14.22
2022-08-31T01:57:59.034Z,14.21
2022-08-31T01:58:48.895Z,14.22
2022-08-31T01:59:38.236Z,14.26
2022-08-31T02:00:20.766Z,14.20
2022-08-31T02:00:52.649Z,14.16
2022-08-31T02:01:33.481Z,14.14
2022-08-31T02:02:06.428Z,14.18
2022-08-31T02:02:38.214Z,14.20
2022-08-31T02:03:10.230Z,14.16
2022-08-31T02:03:41.709Z,14.15
2022-08-31T02:04:14.825Z,14.12
2022-08-31T02:04:47.612Z,14.15
2022-08-31T02:05:20.377Z,14.15
2022-08-31T02:06:23.580Z,14.19
2022-08-31T02:06:57.456Z,14.17
2022-08-31T02:07:28.991Z,14.13
2022-08-31T02:08:00.631Z,14.07
2022-08-31T02:08:34.070Z,14.08
2022-08-31T02:09:06.807Z,14.08
2022-08-31T02:09:38.354Z,14.06
2022-08-31T02:10:10.434Z,14.00
2022-08-31T02:10:42.855Z,14.03
2022-08-31T02:11:15.050Z,13.99
2022-08-31T02:11:47.018Z,13.97
2022-08-31T02:12:18.541Z,13.95
2022-08-31T02:12:50.132Z,13.92
2022-08-31T02:13:21.714Z,13.90
2022-08-31T02:13:54.832Z,13.90
2022-08-31T02:14:26.766Z,13.94
2022-08-31T02:14:58.367Z,13.96
2022-08-31T02:15:30.373Z,13.99
2022-08-31T02:16:02.752Z,14.05
2022-08-31T02:16:35.385Z,14.07
2022-08-31T02:17:06.933Z,14.06
2022-08-31T02:17:40.721Z,14.01
2022-08-31T02:18:12.327Z,14.01
2022-08-31T02:18:44.018Z,14.00
2022-08-31T02:19:17.585Z,13.99
2022-08-31T02:19:49.160Z,13.99
2022-08-31T02:20:21.020Z,13.98
2022-08-31T02:20:55.143Z,13.97
2022-08-31T02:21:26.967Z,13.96
2022-08-31T02:21:58.519Z,13.91
2022-08-31T02:22:30.055Z,13.86
2022-08-31T02:23:03.416Z,13.84
2022-08-31T02:23:35.005Z,13.92
2022-08-31T02:24:08.519Z,13.92
2022-08-31T02:24:40.101Z,13.93
2022-08-31T02:25:11.826Z,13.89
2022-08-31T02:25:43.587Z,13.86
2022-08-31T02:26:17.027Z,13.85
2022-08-31T02:26:53.682Z,13.83
2022-08-31T02:27:25.895Z,13.83
2022-08-31T02:27:57.568Z,13.82
2022-08-31T02:28:29.252Z,13.80
2022-08-31T02:29:00.791Z,13.78
2022-08-31T02:29:32.401Z,13.72
2022-08-31T02:30:08.882Z,13.78
2022-08-31T02:30:41.711Z,13.79
2022-08-31T02:31:13.963Z,13.78
2022-08-31T02:31:53.558Z,13.79
2022-08-31T02:32:25.188Z,13.75
2022-08-31T02:32:56.678Z,13.74
2022-08-31T02:33:28.719Z,13.77
2022-08-31T02:34:03.258Z,13.79
2022-08-31T02:34:34.879Z,13.77
2022-08-31T02:35:06.940Z,13.72
2022-08-31T02:35:39.123Z,13.71
2022-08-31T02:36:10.913Z,13.70
2022-08-31T02:36:45.345Z,13.67
2022-08-31T02:37:18.111Z,13.64
2022-08-31T02:37:52.159Z,13.63
2022-08-31T02:38:23.882Z,13.61
2022-08-31T02:38:55.499Z,13.62
2022-08-31T02:39:27.734Z,13.63
2022-08-31T02:39:59.985Z,13.58
2022-08-31T02:40:32.503Z,13.61
2022-08-31T02:41:05.701Z,13.62
2022-08-31T02:41:37.497Z,13.63
2022-08-31T02:42:09.280Z,13.64
2022-08-31T02:42:52.250Z,13.62
2022-08-31T02:43:25.857Z,13.69
2022-08-31T02:43:58.920Z,13.69
2022-08-31T02:44:30.591Z,13.65
2022-08-31T02:45:02.275Z,13.63
2022-08-31T02:45:33.923Z,13.62
2022-08-31T02:46:12.314Z,13.67
2022-08-31T02:46:52.529Z,13.64
2022-08-31T02:47:44.365Z,13.59
2022-08-31T02:48:31.087Z,13.55
2022-08-31T02:49:04.339Z,13.49
2022-08-31T02:49:35.982Z,13.49
2022-08-31T02:50:08.483Z,13.49
2022-08-31T02:50:46.279Z,13.52
2022-08-31T02:51:17.832Z,13.52
2022-08-31T02:51:51.683Z,13.53
2022-08-31T02:52:23.257Z,13.56
2022-08-31T02:52:56.842Z,13.54
2022-08-31T02:53:28.418Z,13.54
2022-08-31T02:54:00.130Z,13.50
2022-08-31T02:54:31.788Z,13.48
2022-08-31T02:55:04.243Z,13.44
2022-08-31T02:55:36.404Z,13.38
2022-08-31T02:56:08.512Z,13.38
2022-08-31T02:56:40.554Z,13.39
2022-08-31T02:57:12.249Z,13.40
2022-08-31T02:57:43.742Z,13.38
2022-08-31T02:58:18.572Z,13.40
2022-08-31T02:58:55.105Z,13.35
2022-08-31T02:59:28.638Z,13.29
2022-08-31T03:00:00.206Z,13.27
2022-08-31T03:00:34.586Z,13.28
2022-08-31T03:01:07.033Z,13.27
2022-08-31T03:01:39.954Z,13.23
2022-08-31T03:02:11.765Z,13.22
2022-08-31T03:02:44.564Z,13.21
2022-08-31T03:03:16.418Z,13.18
2022-08-31T03:03:49.732Z,13.18
2022-08-31T03:04:21.457Z,13.16
2022-08-31T03:04:53.076Z,13.13
2022-08-31T03:05:25.443Z,13.09
2022-08-31T03:05:57.214Z,13.08
2022-08-31T03:06:29.853Z,13.07
2022-08-31T03:07:01.817Z,13.09
2022-08-31T03:07:34.867Z,13.10
2022-08-31T03:08:06.921Z,13.06
2022-08-31T03:08:39.508Z,13.05
2022-08-31T03:09:11.039Z,13.05
2022-08-31T03:09:44.118Z,13.06
2022-08-31T03:10:17.358Z,13.00
2022-08-31T03:10:49.042Z,13.04
2022-08-31T03:11:21.839Z,13.02
2022-08-31T03:11:53.447Z,12.99
2022-08-31T03:12:25.191Z,13.00
2022-08-31T03:12:56.755Z,12.97
2022-08-31T03:13:29.935Z,12.93
2022-08-31T03:14:01.544Z,12.91
2022-08-31T03:14:33.666Z,12.88
2022-08-31T03:15:06.698Z,12.86
2022-08-31T03:15:38.236Z,12.85
2022-08-31T03:16:14.020Z,12.81
2022-08-31T03:16:46.013Z,12.79
2022-08-31T03:17:17.690Z,12.80
2022-08-31T03:17:49.472Z,12.78
2022-08-31T03:18:21.915Z,12.75
2022-08-31T03:18:54.626Z,12.74
2022-08-31T03:19:26.263Z,12.73
2022-08-31T03:20:01.009Z,12.72
2022-08-31T03:20:33.620Z,12.75
2022-08-31T03:21:06.374Z,12.79
2022-08-31T03:21:38.039Z,12.76
2022-08-31T03:22:10.591Z,12.75
2022-08-31T03:22:43.567Z,12.77
2022-08-31T03:23:17.801Z,12.75
2022-08-31T03:23:51.278Z,12.73
2022-08-31T03:24:23.398Z,12.68
2022-08-31T03:24:59.676Z,12.62
2022-08-31T03:25:31.580Z,12.61
2022-08-31T03:26:05.478Z,12.57
2022-08-31T03:26:37.051Z,12.56
2022-08-31T03:27:08.649Z,12.54
2022-08-31T03:27:40.338Z,12.55
2022-08-31T03:28:11.923Z,12.56
2022-08-31T03:28:46.787Z,12.54
2022-08-31T03:29:36.992Z,12.55
2022-08-31T03:30:23.271Z,12.53
2022-08-31T03:31:08.832Z,12.56
2022-08-31T03:31:40.671Z,12.58
2022-08-31T03:32:13.754Z,12.60
2022-08-31T03:32:48.173Z,12.62
2022-08-31T03:33:20.615Z,12.60
2022-08-31T03:33:52.326Z,12.64
2022-08-31T03:34:23.934Z,12.66
2022-08-31T03:34:57.190Z,12.68
2022-08-31T03:35:28.794Z,12.68
2022-08-31T03:36:01.180Z,12.69
2022-08-31T03:36:32.751Z,12.69
2022-08-31T03:37:04.408Z,12.71
2022-08-31T03:37:36.205Z,12.69
2022-08-31T03:38:08.665Z,12.68
2022-08-31T03:38:40.364Z,12.63
2022-08-31T03:39:12.893Z,12.62
2022-08-31T03:39:45.151Z,12.63
2022-08-31T03:40:16.754Z,12.62
2022-08-31T03:40:48.829Z,12.63
2022-08-31T03:41:22.673Z,12.59
2022-08-31T03:41:54.373Z,12.61
2022-08-31T03:42:27.535Z,12.56
2022-08-31T03:43:00.160Z,12.53
2022-08-31T03:43:32.779Z,12.51
2022-08-31T03:44:05.982Z,12.53
2022-08-31T03:44:37.802Z,12.50
2022-08-31T03:45:13.338Z,12.50
2022-08-31T03:45:45.130Z,12.51
2022-08-31T03:46:16.831Z,12.49
2022-08-31T03:46:50.284Z,12.48
2022-08-31T03:47:21.916Z,12.46
2022-08-31T03:47:55.051Z,12.43
2022-08-31T03:48:28.628Z,12.40
2022-08-31T03:49:01.508Z,12.44
2022-08-31T03:49:34.239Z,12.43
2022-08-31T03:50:23.691Z,12.47
2022-08-31T03:51:05.733Z,12.48
2022-08-31T03:51:39.491Z,12.45
2022-08-31T03:52:12.177Z,12.46
2022-08-31T03:53:04.111Z,12.46
2022-08-31T03:53:35.956Z,12.43
2022-08-31T03:54:08.924Z,12.43
2022-08-31T03:54:40.930Z,12.46
2022-08-31T03:55:13.167Z,12.42
2022-08-31T03:55:47.075Z,12.44
2022-08-31T03:56:19.135Z,12.42
2022-08-31T03:56:53.223Z,12.44
2022-08-31T03:57:25.662Z,12.47
2022-08-31T03:57:58.833Z,12.45
2022-08-31T03:58:31.598Z,12.43
2022-08-31T03:59:04.919Z,12.43
2022-08-31T04:00:00.509Z,12.43
2022-08-31T04:00:46.853Z,12.46
2022-08-31T04:01:39.076Z,12.43
2022-08-31T04:02:38.772Z,12.39
2022-08-31T04:03:29.414Z,12.40
2022-08-31T04:04:20.487Z,12.37
2022-08-31T04:05:13.272Z,12.36
2022-08-31T04:06:12.398Z,12.37
2022-08-31T04:07:21.979Z,12.38
2022-08-31T04:08:12.838Z,12.40
2022-08-31T04:08:50.188Z,12.39
2022-08-31T04:09:40.626Z,12.39
2022-08-31T04:10:30.379Z,12.40
2022-08-31T04:11:25.510Z,12.35
2022-08-31T04:12:30.309Z,12.23
2022-08-31T04:13:13.040Z,12.24
2022-08-31T04:14:15.543Z,12.19
2022-08-31T04:15:08.602Z,12.19
2022-08-31T04:16:12.209Z,12.15
2022-08-31T04:17:02.288Z,12.12
2022-08-31T04:17:46.435Z,12.15
2022-08-31T04:18:42.321Z,12.11
2022-08-31T04:19:16.077Z,12.10
2022-08-31T04:19:59.436Z,12.04
2022-08-31T04:20:40.678Z,12.03
2022-08-31T04:21:22.136Z,12.10
2022-08-31T04:21:56.085Z,12.10
2022-08-31T04:22:28.588Z,12.10
2022-08-31T04:23:21.869Z,12.04
2022-08-31T04:23:59.748Z,12.06
2022-08-31T04:24:34.004Z,12.06
2022-08-31T04:25:05.932Z,12.01
2022-08-31T04:25:39.990Z,12.00
2022-08-31T04:26:25.798Z,11.97
2022-08-31T04:26:57.295Z,11.99
2022-08-31T04:27:29.248Z,11.96
2022-08-31T04:28:01.738Z,11.96
2022-08-31T04:28:35.423Z,11.95
2022-08-31T04:29:12.222Z,11.94
2022-08-31T04:29:44.858Z,11.96
2022-08-31T04:30:16.799Z,11.93
2022-08-31T04:30:48.526Z,11.97
2022-08-31T04:31:21.746Z,11.97
2022-08-31T04:31:54.200Z,11.93
2022-08-31T04:32:27.843Z,11.93
2022-08-31T04:33:02.235Z,11.88
2022-08-31T04:33:33.792Z,11.88
2022-08-31T04:34:07.977Z,11.89
2022-08-31T04:34:39.657Z,11.89
2022-08-31T04:35:11.250Z,11.88
2022-08-31T04:35:44.047Z,11.89
2022-08-31T04:36:19.730Z,11.88
2022-08-31T04:36:52.019Z,11.87
2022-08-31T04:37:24.305Z,11.85
2022-08-31T04:37:55.898Z,11.85
2022-08-31T04:38:27.506Z,11.81
2022-08-31T04:39:01.183Z,11.82
2022-08-31T04:39:33.992Z,11.82
2022-08-31T04:40:06.884Z,11.83
2022-08-31T04:40:40.869Z,11.82
2022-08-31T04:41:14.773Z,11.83
2022-08-31T04:41:46.666Z,11.82
2022-08-31T04:42:19.325Z,11.81
2022-08-31T04:42:50.922Z,11.81
2022-08-31T04:43:26.103Z,11.80
2022-08-31T04:43:59.875Z,11.75
2022-08-31T04:44:31.580Z,11.77
2022-08-31T04:45:04.254Z,11.79
2022-08-31T04:45:40.778Z,11.79
2022-08-31T04:46:14.120Z,11.80
2022-08-31T04:46:45.993Z,11.79
2022-08-31T04:47:17.575Z,11.81
2022-08-31T04:47:49.083Z,11.79
2022-08-31T04:48:20.652Z,11.79
2022-08-31T04:48:53.127Z,11.79
2022-08-31T04:49:25.481Z,11.80
2022-08-31T04:49:57.062Z,11.77
2022-08-31T04:50:28.826Z,11.79
2022-08-31T04:51:19.020Z,11.77
2022-08-31T04:51:50.618Z,11.75
2022-08-31T04:52:28.381Z,11.76
2022-08-31T04:53:03.549Z,11.75
2022-08-31T04:53:36.526Z,11.75
2022-08-31T04:54:10.585Z,11.70
2022-08-31T04:54:42.064Z,11.70
2022-08-31T04:55:13.602Z,11.70
2022-08-31T04:55:45.212Z,11.67
2022-08-31T04:56:22.031Z,11.68
2022-08-31T04:56:53.923Z,11.64
2022-08-31T04:57:35.433Z,11.65
2022-08-31T04:58:08.510Z,11.64
2022-08-31T04:58:45.678Z,11.64
2022-08-31T04:59:18.859Z,11.65
2022-08-31T05:00:10.678Z,11.67
2022-08-31T05:01:15.046Z,11.68
2022-08-31T05:02:05.393Z,11.66
2022-08-31T05:02:54.123Z,11.64
2022-08-31T05:03:26.155Z,11.69
2022-08-31T05:04:00.180Z,11.70
2022-08-31T05:04:31.924Z,11.69
2022-08-31T05:05:04.191Z,11.66
2022-08-31T05:05:39.443Z,11.67
2022-08-31T05:06:15.528Z,11.66
2022-08-31T05:06:47.252Z,11.65
2022-08-31T05:07:19.554Z,11.67
2022-08-31T05:07:51.438Z,11.68
2022-08-31T05:08:23.189Z,11.70
2022-08-31T05:08:56.847Z,11.70
2022-08-31T05:09:29.390Z,11.71
2022-08-31T05:10:00.994Z,11.72
2022-08-31T05:10:32.766Z,11.74
2022-08-31T05:11:16.516Z,11.76
2022-08-31T05:11:50.144Z,11.76
2022-08-31T05:12:22.848Z,11.77
2022-08-31T05:12:54.420Z,11.76
2022-08-31T05:13:27.094Z,11.78
2022-08-31T05:14:00.606Z,11.79
2022-08-31T05:14:32.257Z,11.81
2022-08-31T05:15:08.737Z,11.82
2022-08-31T05:15:42.863Z,11.84
2022-08-31T05:16:17.606Z,11.85
2022-08-31T05:16:49.877Z,11.85
2022-08-31T05:17:21.601Z,11.87
2022-08-31T05:17:53.780Z,11.86
2022-08-31T05:18:26.303Z,11.87
2022-08-31T05:19:03.943Z,11.89
2022-08-31T05:19:40.914Z,11.88
2022-08-31T05:20:12.866Z,11.85
2022-08-31T05:20:45.099Z,11.86
2022-08-31T05:21:28.180Z,11.88
2022-08-31T05:21:59.761Z,11.88
2022-08-31T05:22:31.803Z,11.92
2022-08-31T05:23:07.377Z,11.91
2022-08-31T05:23:39.505Z,11.93
2022-08-31T05:24:21.727Z,11.94
2022-08-31T05:24:53.260Z,11.97
2022-08-31T05:25:24.751Z,11.98
2022-08-31T05:25:56.725Z,12.01
2022-08-31T05:26:31.363Z,12.01
2022-08-31T05:27:03.130Z,12.01
2022-08-31T05:27:36.334Z,11.98
2022-08-31T05:28:08.133Z,12.00
2022-08-31T05:28:39.747Z,12.00
2022-08-31T05:29:14.298Z,12.01
2022-08-31T05:29:46.593Z,12.03
2022-08-31T05:30:36.754Z,12.06
2022-08-31T05:31:14.368Z,12.06
2022-08-31T05:31:52.273Z,12.09
2022-08-31T05:32:24.282Z,12.07
2022-08-31T05:32:57.526Z,12.10
2022-08-31T05:33:29.839Z,12.13
2022-08-31T05:34:01.925Z,12.14
2022-08-31T05:34:41.141Z,12.17
2022-08-31T05:35:12.862Z,12.15
2022-08-31T05:35:48.225Z,12.15
2022-08-31T05:36:19.727Z,12.16
2022-08-31T05:36:53.629Z,12.17
2022-08-31T05:37:25.159Z,12.18
2022-08-31T05:37:56.699Z,12.20
2022-08-31T05:38:29.447Z,12.20
2022-08-31T05:39:01.671Z,12.22
2022-08-31T05:39:33.654Z,12.26
2022-08-31T05:40:07.055Z,12.28
2022-08-31T05:40:38.720Z,12.30
2022-08-31T05:41:10.420Z,12.32
2022-08-31T05:41:44.243Z,12.33
2022-08-31T05:42:15.955Z,12.35
2022-08-31T05:42:48.074Z,12.35
2022-08-31T05:43:20.132Z,12.34
2022-08-31T05:43:51.879Z,12.34
2022-08-31T05:44:23.648Z,12.35
2022-08-31T05:45:01.558Z,12.37
2022-08-31T05:45:33.344Z,12.37
2022-08-31T05:46:13.315Z,12.35
2022-08-31T05:46:45.039Z,12.34
2022-08-31T05:47:27.122Z,12.33
2022-08-31T05:47:59.035Z,12.32
2022-08-31T05:48:33.608Z,12.32
2022-08-31T05:49:07.652Z,12.30
2022-08-31T05:49:42.855Z,12.31
2022-08-31T05:50:18.633Z,12.29
2022-08-31T05:50:50.653Z,12.29
2022-08-31T05:51:23.813Z,12.31
2022-08-31T05:51:56.472Z,12.33
2022-08-31T05:52:28.442Z,12.29
2022-08-31T05:53:00.333Z,12.28
2022-08-31T05:53:32.166Z,12.28
2022-08-31T05:54:04.990Z,12.32
2022-08-31T05:54:38.274Z,12.31
2022-08-31T05:55:09.927Z,12.33
2022-08-31T05:55:42.366Z,12.35
2022-08-31T05:56:19.149Z,12.33
2022-08-31T05:56:52.198Z,12.33
2022-08-31T05:57:26.726Z,12.34
2022-08-31T05:58:00.747Z,12.40
2022-08-31T05:58:33.205Z,12.48
2022-08-31T05:59:04.826Z,12.55
2022-08-31T05:59:39.160Z,12.66
2022-08-31T06:00:12.295Z,12.75
2022-08-31T06:00:51.042Z,12.76
2022-08-31T06:01:48.400Z,12.71
2022-08-31T06:02:27.638Z,12.67
2022-08-31T06:03:01.604Z,12.60
2022-08-31T06:03:33.246Z,12.59
2022-08-31T06:04:07.391Z,12.62
2022-08-31T06:04:39.091Z,12.61
2022-08-31T06:05:10.831Z,12.58
2022-08-31T06:05:42.586Z,12.56
2022-08-31T06:06:15.606Z,12.56
2022-08-31T06:06:47.405Z,12.57
2022-08-31T06:07:21.751Z,12.55
2022-08-31T06:07:58.846Z,12.54
2022-08-31T06:08:33.740Z,12.58
2022-08-31T06:09:06.964Z,12.57
2022-08-31T06:09:39.068Z,12.59
2022-08-31T06:10:14.923Z,12.62
2022-08-31T06:10:48.924Z,12.62
2022-08-31T06:11:23.367Z,12.62
2022-08-31T06:11:56.967Z,12.62
2022-08-31T06:12:28.688Z,12.66
2022-08-31T06:13:02.051Z,12.65
2022-08-31T06:13:33.738Z,12.72
2022-08-31T06:14:06.217Z,12.78
2022-08-31T06:14:38.842Z,12.89
2022-08-31T06:15:11.231Z,13.00
2022-08-31T06:15:43.942Z,13.11
2022-08-31T06:16:17.741Z,13.22
2022-08-31T06:16:49.699Z,13.30
2022-08-31T06:17:24.511Z,13.40
2022-08-31T06:17:56.263Z,13.51
2022-08-31T06:18:29.986Z,13.62
2022-08-31T06:19:07.003Z,13.67
2022-08-31T06:19:40.022Z,13.84
2022-08-31T06:20:16.901Z,14.04
2022-08-31T06:20:50.225Z,14.25
2022-08-31T06:21:25.340Z,14.40
2022-08-31T06:21:57.519Z,14.46
2022-08-31T06:22:35.221Z,14.57
2022-08-31T06:23:08.230Z,14.85
2022-08-31T06:23:53.934Z,15.05
2022-08-31T06:24:28.458Z,15.38
2022-08-31T06:25:00.611Z,15.62
2022-08-31T06:25:33.389Z,15.72
2022-08-31T06:26:13.047Z,15.87
2022-08-31T06:26:56.730Z,15.91
2022-08-31T06:27:32.123Z,15.71
2022-08-31T06:28:06.704Z,15.44
2022-08-31T06:28:50.243Z,14.98
2022-08-31T06:29:22.495Z,15.11
2022-08-31T06:29:55.065Z,15.08
2022-08-31T06:30:27.615Z,15.04
2022-08-31T06:31:01.512Z,14.87
2022-08-31T06:31:47.167Z,14.89
2022-08-31T06:32:22.023Z,14.79
2022-08-31T06:33:04.991Z,14.70
2022-08-31T06:33:51.928Z,14.46
2022-08-31T06:34:45.898Z,14.64
2022-08-31T06:35:40.288Z,14.75
2022-08-31T06:36:35.326Z,14.76
2022-08-31T06:37:36.473Z,14.89
2022-08-31T06:38:26.006Z,14.88
2022-08-31T06:39:24.045Z,14.77
2022-08-31T06:40:15.971Z,14.83
2022-08-31T06:41:23.079Z,15.01
2022-08-31T06:42:23.617Z,15.12
2022-08-31T06:43:07.842Z,15.14
2022-08-31T06:44:03.328Z,15.29
2022-08-31T06:44:54.643Z,15.30
2022-08-31T06:45:30.123Z,15.33
2022-08-31T06:46:17.622Z,15.27
2022-08-31T06:47:14.268Z,15.18
2022-08-31T06:47:47.344Z,15.20
2022-08-31T06:48:19.682Z,15.10
2022-08-31T06:48:57.078Z,15.07
2022-08-31T06:49:28.791Z,15.18
2022-08-31T06:50:00.477Z,15.33
2022-08-31T06:50:32.475Z,15.49
2022-08-31T06:51:04.894Z,15.52
2022-08-31T06:51:38.066Z,15.58
2022-08-31T06:52:09.918Z,15.73
2022-08-31T06:52:43.103Z,15.85
2022-08-31T06:53:23.045Z,15.99
2022-08-31T06:54:30.555Z,16.06
2022-08-31T06:55:28.742Z,16.24
2022-08-31T06:56:21.433Z,16.35
2022-08-31T06:57:16.936Z,16.30
2022-08-31T06:58:03.871Z,16.06
2022-08-31T06:59:00.625Z,16.26
2022-08-31T06:59:53.681Z,16.44
2022-08-31T07:00:54.271Z,16.55
2022-08-31T07:01:35.101Z,16.62
2022-08-31T07:02:37.085Z,16.80
2022-08-31T07:03:24.287Z,16.85
2022-08-31T07:03:58.229Z,16.95
2022-08-31T07:04:36.433Z,16.98
2022-08-31T07:05:11.443Z,17.04
2022-08-31T07:05:45.334Z,17.13
2022-08-31T07:06:20.346Z,16.84
2022-08-31T07:06:52.482Z,16.76
2022-08-31T07:07:24.073Z,16.66
2022-08-31T07:07:56.940Z,16.46
2022-08-31T07:08:28.569Z,16.37
2022-08-31T07:09:03.953Z,16.18
2022-08-31T07:09:36.222Z,16.07
2022-08-31T07:10:10.547Z,16.02
2022-08-31T07:10:42.339Z,15.86
2022-08-31T07:11:20.864Z,15.85
2022-08-31T07:11:52.622Z,15.84
2022-08-31T07:12:24.541Z,15.90
2022-08-31T07:12:56.063Z,16.08
2022-08-31T07:13:27.806Z,16.41
2022-08-31T07:14:00.393Z,16.81
2022-08-31T07:14:33.849Z,17.15
2022-08-31T07:15:06.596Z,17.55
2022-08-31T07:15:38.277Z,17.81
2022-08-31T07:16:13.961Z,17.86
2022-08-31T07:16:46.382Z,17.69
2022-08-31T07:17:18.124Z,17.70
2022-08-31T07:17:51.826Z,17.59
2022-08-31T07:18:24.571Z,17.92
2022-08-31T07:19:03.458Z,18.37
2022-08-31T07:19:35.213Z,18.46
2022-08-31T07:20:09.198Z,18.60
2022-08-31T07:20:40.976Z,18.83
2022-08-31T07:21:18.841Z,18.73
2022-08-31T07:21:56.749Z,18.49
2022-08-31T07:22:28.779Z,18.35
2022-08-31T07:23:13.040Z,18.17
2022-08-31T07:23:53.820Z,17.87
2022-08-31T07:24:30.402Z,17.66
2022-08-31T07:25:02.220Z,17.83
2022-08-31T07:25:33.911Z,17.95
2022-08-31T07:26:09.349Z,17.94
2022-08-31T07:26:43.898Z,17.87
2022-08-31T07:27:18.243Z,17.68
2022-08-31T07:28:08.056Z,17.34
2022-08-31T07:28:43.273Z,17.17
2022-08-31T07:29:22.650Z,17.17
2022-08-31T07:29:54.289Z,17.21
2022-08-31T07:30:28.984Z,17.59
2022-08-31T07:31:06.040Z,17.97
2022-08-31T07:31:46.398Z,18.13
2022-08-31T07:32:19.347Z,18.42
2022-08-31T07:32:56.391Z,18.57
2022-08-31T07:33:39.023Z,18.59
2022-08-31T07:34:12.682Z,18.26
2022-08-31T07:35:00.721Z,18.06
2022-08-31T07:35:35.625Z,18.25